createdAt,value
2023-04-29T00:00:07.851Z,2.70
2023-04-29T00:02:36.013Z,2.63
2023-04-29T00:05:05.606Z,2.50
2023-04-29T00:07:33.782Z,2.80
2023-04-29T00:10:03.938Z,2.70
2023-04-29T00:12:32.376Z,2.60
2023-04-29T00:15:00.922Z,2.50
2023-04-29T00:17:28.805Z,2.45
2023-04-29T00:19:56.589Z,2.60
2023-04-29T00:22:24.758Z,2.60
2023-04-29T00:24:53.223Z,2.60
2023-04-29T00:27:22.591Z,2.63
2023-04-29T00:29:50.642Z,2.25
2023-04-29T00:32:18.515Z,2.45
2023-04-29T00:34:46.189Z,2.65
2023-04-29T00:37:13.963Z,2.70
2023-04-29T00:39:41.695Z,2.50
2023-04-29T00:42:09.645Z,2.58
2023-04-29T00:44:38.958Z,2.38
2023-04-29T00:47:11.320Z,2.40
2023-04-29T00:49:39.337Z,2.50
2023-04-29T00:52:08.086Z,2.40
2023-04-29T00:54:36.281Z,2.53
2023-04-29T00:57:07.101Z,2.45
2023-04-29T00:59:35.228Z,2.60
2023-04-29T01:02:05.544Z,2.53
2023-04-29T01:04:33.274Z,2.60
2023-04-29T01:07:06.606Z,2.60
2023-04-29T01:09:48.215Z,2.70
2023-04-29T01:12:23.433Z,2.60
2023-04-29T01:14:56.099Z,2.60
2023-04-29T01:17:27.613Z,2.70
2023-04-29T01:19:57.006Z,2.80
2023-04-29T01:22:24.733Z,2.50
2023-04-29T01:24:54.964Z,2.47
2023-04-29T01:27:30.523Z,2.70
2023-04-29T01:30:03.318Z,2.70
2023-04-29T01:32:38.778Z,2.53
2023-04-29T01:35:14.406Z,2.60
2023-04-29T01:37:45.402Z,2.67
2023-04-29T01:40:18.181Z,2.60
2023-04-29T01:42:48.087Z,2.30
2023-04-29T01:45:17.419Z,2.47
2023-04-29T01:47:46.422Z,2.60
2023-04-29T01:50:14.378Z,2.50
2023-04-29T01:52:42.504Z,2.70
2023-04-29T01:55:11.049Z,2.53
2023-04-29T01:57:40.125Z,2.53
2023-04-29T02:00:11.606Z,2.58
2023-04-29T02:02:39.539Z,2.65
2023-04-29T02:05:07.898Z,2.50
2023-04-29T02:07:35.753Z,2.70
2023-04-29T02:10:03.458Z,2.60
2023-04-29T02:12:31.285Z,2.53
2023-04-29T02:15:00.366Z,2.38
2023-04-29T02:17:28.204Z,2.60
2023-04-29T02:19:56.002Z,2.58
2023-04-29T02:22:23.837Z,2.72
2023-04-29T02:24:51.979Z,2.67
2023-04-29T02:27:19.816Z,2.70
2023-04-29T02:29:47.630Z,2.45
2023-04-29T02:32:20.053Z,2.80
2023-04-29T02:34:47.890Z,2.50
2023-04-29T02:37:15.803Z,2.80
2023-04-29T02:39:43.518Z,2.70
2023-04-29T02:42:11.264Z,2.50
2023-04-29T02:44:39.586Z,2.78
2023-04-29T02:47:07.238Z,2.38
2023-04-29T02:49:37.772Z,2.50
2023-04-29T02:52:14.586Z,2.65
2023-04-29T02:55:40.915Z,2.70
2023-04-29T02:58:59.161Z,2.58
2023-04-29T03:02:25.304Z,2.78
2023-04-29T03:05:12.580Z,2.60
2023-04-29T03:07:48.517Z,2.63
2023-04-29T03:10:16.360Z,2.65
2023-04-29T03:12:47.055Z,2.45
2023-04-29T03:15:19.585Z,2.60
2023-04-29T03:18:22.510Z,2.67
2023-04-29T03:20:57.724Z,2.58
2023-04-29T03:23:26.771Z,2.67
2023-04-29T03:25:55.893Z,2.58
2023-04-29T03:28:23.909Z,2.70
2023-04-29T03:30:52.410Z,2.70
2023-04-29T03:33:20.979Z,2.75
2023-04-29T03:35:48.733Z,2.63
2023-04-29T03:38:48.897Z,2.50
2023-04-29T03:41:56.475Z,2.60
2023-04-29T03:44:45.210Z,2.70
2023-04-29T03:48:12.482Z,2.70
2023-04-29T03:51:37.599Z,2.60
2023-04-29T03:54:54.233Z,2.75
2023-04-29T03:58:20.470Z,2.55
2023-04-29T04:01:47.428Z,2.53
2023-04-29T04:05:13.950Z,2.50
2023-04-29T04:08:41.274Z,2.60
2023-04-29T04:12:08.891Z,2.78
2023-04-29T04:15:36.031Z,2.70
2023-04-29T04:19:02.243Z,2.78
2023-04-29T04:22:28.569Z,2.70
2023-04-29T04:25:54.807Z,2.70
2023-04-29T04:29:22.414Z,2.65
2023-04-29T04:32:48.669Z,2.38
2023-04-29T04:36:15.284Z,2.55
2023-04-29T04:39:41.505Z,2.60
2023-04-29T04:43:07.800Z,2.40
2023-04-29T04:46:35.611Z,2.70
2023-04-29T04:50:02.077Z,2.60
2023-04-29T04:53:28.267Z,2.50
2023-04-29T04:56:54.594Z,2.70
2023-04-29T05:00:21.158Z,2.40
2023-04-29T05:03:49.524Z,2.63
2023-04-29T05:07:15.917Z,2.47
2023-04-29T05:10:43.989Z,2.60
2023-04-29T05:14:10.834Z,2.90
2023-04-29T05:17:37.210Z,2.58
2023-04-29T05:21:05.996Z,2.75
2023-04-29T05:24:32.818Z,2.70
2023-04-29T05:27:59.164Z,2.70
2023-04-29T05:31:26.170Z,2.80
2023-04-29T05:34:52.442Z,2.80
2023-04-29T05:38:20.296Z,2.80
2023-04-29T05:41:46.584Z,2.80
2023-04-29T05:45:13.444Z,2.60
2023-04-29T05:48:40.183Z,2.80
2023-04-29T05:52:06.725Z,2.88
2023-04-29T05:55:34.489Z,2.60
2023-04-29T05:59:00.587Z,2.65
2023-04-29T06:02:26.862Z,2.40
2023-04-29T06:05:53.941Z,2.75
2023-04-29T06:09:27.512Z,2.70
2023-04-29T06:12:56.337Z,2.83
2023-04-29T06:16:22.709Z,2.78
2023-04-29T06:19:49.248Z,2.80
2023-04-29T06:23:15.754Z,2.70
2023-04-29T06:26:41.976Z,2.50
2023-04-29T06:30:11.141Z,2.50
2023-04-29T06:33:38.024Z,2.60
2023-04-29T06:37:05.027Z,2.50
2023-04-29T06:40:30.825Z,2.60
2023-04-29T06:43:57.040Z,2.50
2023-04-29T06:47:25.106Z,2.78
2023-04-29T06:50:52.160Z,2.60
2023-04-29T06:53:37.292Z,2.42
2023-04-29T06:56:47.241Z,2.80
2023-04-29T06:59:53.642Z,2.20
2023-04-29T07:03:19.640Z,2.70
2023-04-29T07:06:47.052Z,2.65
2023-04-29T07:10:15.677Z,2.70
2023-04-29T07:13:13.852Z,2.65
2023-04-29T07:15:44.720Z,2.67
2023-04-29T07:18:14.260Z,2.80
2023-04-29T07:20:46.034Z,2.75
2023-04-29T07:24:02.688Z,2.80
2023-04-29T07:27:29.669Z,2.60
2023-04-29T07:30:48.229Z,2.72
2023-04-29T07:33:30.959Z,2.80
2023-04-29T07:36:57.331Z,2.63
2023-04-29T07:40:24.552Z,2.60
2023-04-29T07:43:51.004Z,2.70
2023-04-29T07:47:17.544Z,2.70
2023-04-29T07:50:39.471Z,2.50
2023-04-29T07:53:49.726Z,2.78
2023-04-29T07:56:56.708Z,2.80
2023-04-29T07:59:42.208Z,2.35
2023-04-29T08:03:04.678Z,2.42
2023-04-29T08:06:33.102Z,2.80
2023-04-29T08:09:56.835Z,2.70
2023-04-29T08:13:22.181Z,2.53
2023-04-29T08:16:48.537Z,2.50
2023-04-29T08:20:15.445Z,2.72
2023-04-29T08:23:43.568Z,2.50
2023-04-29T08:26:59.501Z,2.40
2023-04-29T08:30:03.114Z,2.40
2023-04-29T08:33:28.860Z,2.45
2023-04-29T08:36:58.569Z,2.47
2023-04-29T08:40:28.588Z,2.47
2023-04-29T08:43:57.527Z,2.47
2023-04-29T08:47:25.307Z,2.50
2023-04-29T08:50:51.088Z,2.47
2023-04-29T08:54:17.868Z,2.15
2023-04-29T08:57:46.425Z,2.72
2023-04-29T09:01:13.179Z,2.47
2023-04-29T09:04:43.655Z,2.50
2023-04-29T09:08:10.878Z,2.50
2023-04-29T09:11:37.806Z,2.60
2023-04-29T09:15:09.319Z,2.47
2023-04-29T09:18:49.451Z,2.47
2023-04-29T09:22:18.420Z,2.50
2023-04-29T09:25:47.051Z,2.65
2023-04-29T09:29:19.404Z,2.38
2023-04-29T09:32:33.496Z,2.42
2023-04-29T09:36:57.285Z,2.50
2023-04-29T09:44:11.635Z,2.42
2023-04-29T09:47:39.901Z,2.45
2023-04-29T09:51:11.581Z,2.45
2023-04-29T09:54:38.789Z,2.67
2023-04-29T09:58:06.597Z,2.60
2023-04-29T10:01:33.887Z,2.70
2023-04-29T10:05:04.631Z,2.40
2023-04-29T10:08:31.906Z,2.30
2023-04-29T10:12:00.068Z,2.50
2023-04-29T10:15:28.980Z,2.60
2023-04-29T10:19:01.702Z,2.47
2023-04-29T10:22:21.028Z,2.60
2023-04-29T10:25:48.602Z,2.40
2023-04-29T10:29:16.060Z,2.60
2023-04-29T10:32:49.886Z,2.60
2023-04-29T10:36:18.552Z,2.70
2023-04-29T10:39:49.201Z,2.90
2023-04-29T10:43:24.395Z,2.42
2023-04-29T10:47:20.199Z,2.50
2023-04-29T10:51:03.188Z,2.72
2023-04-29T10:57:19.853Z,2.35
2023-04-29T11:00:02.640Z,2.40
2023-04-29T11:02:42.122Z,2.90
2023-04-29T11:05:12.704Z,2.60
2023-04-29T11:07:44.650Z,2.97
2023-04-29T11:10:15.133Z,2.97
2023-04-29T11:12:44.747Z,2.80
2023-04-29T11:15:14.920Z,2.90
2023-04-29T11:17:43.219Z,2.70
2023-04-29T11:20:12.642Z,2.53
2023-04-29T11:22:44.046Z,2.60
2023-04-29T11:25:17.262Z,2.47
2023-04-29T11:27:48.815Z,2.50
2023-04-29T11:30:17.217Z,2.72
2023-04-29T11:32:45.612Z,2.40
2023-04-29T11:35:15.676Z,2.50
2023-04-29T11:37:45.726Z,2.40
2023-04-29T11:40:17.232Z,2.67
2023-04-29T11:42:51.457Z,2.70
2023-04-29T11:45:22.507Z,2.88
2023-04-29T11:47:53.308Z,2.55
2023-04-29T11:50:31.195Z,2.67
2023-04-29T11:52:59.344Z,2.72
2023-04-29T11:55:29.592Z,2.50
2023-04-29T11:57:57.951Z,2.78
2023-04-29T12:00:26.155Z,2.50
2023-04-29T12:02:54.424Z,2.80
2023-04-29T12:05:23.118Z,3.00
2023-04-29T12:07:52.358Z,2.63
2023-04-29T12:10:22.155Z,2.60
2023-04-29T12:12:52.632Z,2.40
2023-04-29T12:15:21.098Z,2.78
2023-04-29T12:17:49.515Z,2.95
2023-04-29T12:20:17.816Z,3.00
2023-04-29T12:22:46.509Z,2.60
2023-04-29T12:25:15.153Z,2.92
2023-04-29T12:28:00.535Z,2.80
2023-04-29T12:30:33.871Z,2.80
2023-04-29T12:33:03.615Z,3.10
2023-04-29T12:35:31.874Z,2.88
2023-04-29T12:38:04.656Z,2.60
2023-04-29T12:41:11.173Z,2.80
2023-04-29T12:43:40.823Z,2.70
2023-04-29T12:46:12.918Z,2.40
2023-04-29T12:48:47.889Z,2.42
2023-04-29T12:51:15.745Z,2.60
2023-04-29T12:53:43.798Z,2.50
2023-04-29T12:56:13.346Z,2.70
2023-04-29T12:58:42.957Z,2.40
2023-04-29T13:02:02.155Z,2.45
2023-04-29T13:05:18.522Z,2.80
2023-04-29T13:08:03.467Z,2.70
2023-04-29T13:10:33.352Z,2.53
2023-04-29T13:13:10.045Z,2.50
2023-04-29T13:15:41.671Z,2.45
2023-04-29T13:18:09.957Z,2.40
2023-04-29T13:20:41.528Z,2.40
2023-04-29T13:23:12.050Z,2.38
2023-04-29T13:25:40.088Z,2.50
2023-04-29T13:28:08.273Z,2.40
2023-04-29T13:30:36.734Z,2.70
2023-04-29T13:33:12.235Z,2.17
2023-04-29T13:35:42.045Z,2.40
2023-04-29T13:38:10.423Z,2.50
2023-04-29T13:40:42.347Z,2.35
2023-04-29T13:43:18.657Z,2.50
2023-04-29T13:45:55.826Z,2.45
2023-04-29T13:48:55.283Z,2.45
2023-04-29T13:57:50.350Z,2.40
2023-04-29T13:59:53.484Z,2.30
2023-04-29T14:02:25.502Z,2.50
2023-04-29T14:04:56.585Z,2.30
2023-04-29T14:07:27.186Z,2.40
2023-04-29T14:09:56.255Z,2.40
2023-04-29T14:12:24.552Z,2.50
2023-04-29T14:14:53.754Z,2.30
2023-04-29T14:17:21.926Z,2.50
2023-04-29T14:19:51.744Z,2.25
2023-04-29T14:22:21.746Z,2.47
2023-04-29T14:24:51.970Z,2.40
2023-04-29T14:27:22.029Z,2.00
2023-04-29T14:29:49.883Z,2.30
2023-04-29T14:32:20.662Z,2.53
2023-04-29T14:34:49.880Z,2.20
2023-04-29T14:37:20.125Z,2.70
2023-04-29T14:39:49.953Z,2.45
2023-04-29T14:42:18.799Z,2.60
2023-04-29T14:44:57.072Z,2.30
2023-04-29T14:47:28.123Z,2.40
2023-04-29T14:49:56.624Z,2.40
2023-04-29T14:52:24.638Z,2.50
2023-04-29T14:54:54.937Z,2.20
2023-04-29T14:57:23.515Z,2.28
2023-04-29T14:59:51.752Z,1.98
2023-04-29T15:02:19.677Z,2.30
2023-04-29T15:04:47.994Z,2.50
2023-04-29T15:07:17.025Z,2.50
2023-04-29T15:09:45.963Z,2.30
2023-04-29T15:12:17.020Z,2.50
2023-04-29T15:14:45.223Z,2.30
2023-04-29T15:17:17.147Z,2.50
2023-04-29T15:22:15.524Z,2.40
2023-04-29T15:24:43.838Z,2.55
2023-04-29T15:27:12.725Z,2.42
2023-04-29T15:29:42.082Z,2.30
2023-04-29T15:32:10.718Z,2.30
2023-04-29T15:34:38.794Z,2.17
2023-04-29T15:37:06.732Z,2.30
2023-04-29T15:39:34.993Z,2.20
2023-04-29T15:42:04.602Z,2.50
2023-04-29T15:44:40.964Z,2.50
2023-04-29T15:47:13.750Z,2.40
2023-04-29T15:49:43.333Z,2.30
2023-04-29T15:52:11.421Z,2.40
2023-04-29T15:54:39.658Z,2.40
2023-04-29T15:57:08.613Z,2.30
2023-04-29T15:59:37.059Z,2.50
2023-04-29T16:02:10.678Z,2.40
2023-04-29T16:04:40.995Z,2.38
2023-04-29T16:07:09.389Z,2.22
2023-04-29T16:09:37.475Z,2.13
2023-04-29T16:12:05.853Z,2.20
2023-04-29T16:14:33.910Z,2.20
2023-04-29T16:17:02.602Z,2.30
2023-04-29T16:19:30.644Z,2.50
2023-04-29T16:22:00.234Z,2.50
2023-04-29T16:24:28.422Z,2.20
2023-04-29T16:26:57.226Z,2.20
2023-04-29T16:29:25.576Z,2.28
2023-04-29T16:31:55.141Z,2.20
2023-04-29T16:34:23.591Z,2.25
2023-04-29T16:36:51.931Z,2.30
2023-04-29T16:39:21.423Z,2.20
2023-04-29T16:41:49.255Z,2.50
2023-04-29T16:44:17.480Z,2.20
2023-04-29T16:46:46.579Z,2.20
2023-04-29T16:49:16.978Z,2.50
2023-04-29T16:51:45.246Z,2.03
2023-04-29T16:54:13.719Z,2.30
2023-04-29T16:56:43.422Z,2.10
2023-04-29T16:59:12.551Z,2.28
2023-04-29T17:01:40.759Z,2.20
2023-04-29T17:04:08.908Z,2.40
2023-04-29T17:06:37.412Z,2.20
2023-04-29T17:09:05.713Z,2.47
2023-04-29T17:11:33.766Z,2.30
2023-04-29T17:14:03.678Z,2.30
2023-04-29T17:16:31.750Z,2.10
2023-04-29T17:18:59.996Z,2.33
2023-04-29T17:21:32.724Z,2.10
2023-04-29T17:24:08.681Z,2.10
2023-04-29T17:26:44.416Z,2.30
2023-04-29T17:29:15.566Z,2.10
2023-04-29T17:31:54.489Z,2.40
2023-04-29T17:34:34.270Z,2.17
2023-04-29T17:37:25.007Z,2.05
2023-04-29T17:40:51.777Z,2.15
2023-04-29T17:44:21.802Z,2.15
2023-04-29T17:47:49.488Z,2.00
2023-04-29T17:51:15.978Z,2.05
2023-04-29T17:54:44.438Z,2.30
2023-04-29T17:58:12.483Z,2.10
2023-04-29T18:01:40.376Z,2.05
2023-04-29T18:05:08.311Z,2.15
2023-04-29T18:08:35.122Z,2.10
2023-04-29T18:12:02.323Z,2.25
2023-04-29T18:15:28.603Z,2.00
2023-04-29T18:19:14.450Z,2.10
2023-04-29T18:22:40.794Z,2.30
2023-04-29T18:26:07.594Z,2.30
2023-04-29T18:29:33.845Z,2.20
2023-04-29T18:33:00.251Z,2.13
2023-04-29T18:36:28.397Z,2.10
2023-04-29T18:39:55.171Z,2.40
2023-04-29T18:43:24.590Z,2.00
2023-04-29T18:46:51.705Z,2.10
2023-04-29T18:50:17.984Z,2.10
2023-04-29T18:53:47.073Z,2.50
2023-04-29T18:57:13.471Z,2.25
2023-04-29T19:00:39.998Z,2.38
2023-04-29T19:04:08.655Z,2.20
2023-04-29T19:07:36.385Z,2.28
2023-04-29T19:11:07.406Z,2.25
2023-04-29T19:14:34.408Z,2.25
2023-04-29T19:21:41.107Z,2.30
2023-04-29T19:25:10.344Z,2.22
2023-04-29T19:28:36.784Z,2.00
2023-04-29T19:32:03.548Z,2.40
2023-04-29T19:35:30.282Z,2.20
2023-04-29T19:38:57.128Z,2.28
2023-04-29T19:42:25.304Z,2.40
2023-04-29T19:45:51.602Z,2.10
2023-04-29T19:49:18.039Z,2.30
2023-04-29T19:52:44.587Z,2.20
2023-04-29T19:56:13.167Z,2.05
2023-04-29T19:59:40.848Z,2.03
2023-04-29T20:03:07.136Z,2.40
2023-04-29T20:06:35.190Z,2.30
2023-04-29T20:10:01.646Z,2.30
2023-04-29T20:13:28.246Z,2.40
2023-04-29T20:16:57.593Z,2.30
2023-04-29T20:20:25.790Z,2.20
2023-04-29T20:23:52.279Z,2.30
2023-04-29T20:27:18.811Z,2.10
2023-04-29T20:30:45.191Z,2.10
2023-04-29T20:34:13.298Z,2.20
2023-04-29T20:37:39.601Z,2.10
2023-04-29T20:41:06.804Z,2.20
2023-04-29T20:44:33.466Z,2.38
2023-04-29T20:48:00.086Z,2.20
2023-04-29T20:51:27.766Z,2.40
2023-04-29T20:54:54.396Z,2.17
2023-04-29T20:58:20.758Z,2.20
2023-04-29T21:01:47.383Z,2.40
2023-04-29T21:05:13.826Z,2.35
2023-04-29T21:08:42.825Z,2.40
2023-04-29T21:12:09.095Z,2.50
2023-04-29T21:15:36.408Z,2.30
2023-04-29T21:19:02.963Z,2.30
2023-04-29T21:22:29.478Z,2.28
2023-04-29T21:25:57.229Z,2.28
2023-04-29T21:29:24.010Z,2.30
2023-04-29T21:32:50.202Z,2.30
2023-04-29T21:36:18.070Z,2.08
2023-04-29T21:39:44.345Z,2.10
2023-04-29T21:43:12.654Z,2.22
2023-04-29T21:46:39.688Z,2.30
2023-04-29T21:50:06.404Z,1.98
2023-04-29T21:53:32.772Z,2.28
2023-04-29T21:56:59.508Z,2.10
2023-04-29T22:00:33.175Z,2.15
2023-04-29T22:04:00.215Z,2.40
2023-04-29T22:07:26.780Z,2.50
2023-04-29T22:10:53.206Z,2.25
2023-04-29T22:14:19.491Z,2.00
2023-04-29T22:17:47.301Z,2.30
2023-04-29T22:21:14.234Z,2.28
2023-04-29T22:24:40.647Z,2.22
2023-04-29T22:28:06.944Z,2.30
2023-04-29T22:31:33.277Z,2.40
2023-04-29T22:35:01.127Z,2.35
2023-04-29T22:38:28.460Z,2.20
2023-04-29T22:41:54.682Z,2.20
2023-04-29T22:45:21.057Z,2.30
2023-04-29T22:48:47.682Z,2.40
2023-04-29T22:52:15.498Z,2.20
2023-04-29T22:55:41.864Z,2.05
2023-04-29T22:59:08.172Z,2.25
2023-04-29T23:02:34.733Z,2.13
2023-04-29T23:06:02.400Z,2.30
2023-04-29T23:09:30.269Z,2.20
2023-04-29T23:12:56.573Z,2.30
2023-04-29T23:16:22.873Z,2.00
2023-04-29T23:19:49.184Z,2.30
2023-04-29T23:23:15.582Z,2.45
2023-04-29T23:26:43.855Z,2.33
2023-04-29T23:30:10.448Z,2.30
2023-04-29T23:33:36.733Z,2.30
2023-04-29T23:37:03.467Z,2.20
2023-04-29T23:40:31.171Z,2.15
2023-04-29T23:44:01.252Z,2.20
2023-04-29T23:47:27.599Z,2.30
2023-04-29T23:50:53.942Z,2.50
2023-04-29T23:54:20.183Z,2.50
2023-04-29T23:57:46.462Z,2.20
